createdAt,value
2022-07-27T00:02:32.610Z,37.70
2022-07-27T00:07:37.461Z,39.67
2022-07-27T00:12:41.829Z,34.90
2022-07-27T00:17:45.189Z,32.00
2022-07-27T00:22:49.956Z,29.42
2022-07-27T00:27:53.397Z,39.60
2022-07-27T00:32:57.136Z,30.13
2022-07-27T00:38:01.803Z,31.77
2022-07-27T00:43:05.215Z,32.42
2022-07-27T00:48:08.638Z,70.03
2022-07-27T00:53:14.272Z,52.92
2022-07-27T00:58:18.360Z,41.55
2022-07-27T01:03:23.255Z,30.70
2022-07-27T01:08:34.883Z,27.13
2022-07-27T01:13:38.511Z,29.23
2022-07-27T01:18:43.376Z,33.72
2022-07-27T01:23:48.102Z,29.05
2022-07-27T01:28:51.412Z,26.33
2022-07-27T01:33:54.751Z,27.42
2022-07-27T01:38:59.457Z,33.75
2022-07-27T01:44:02.751Z,31.38
2022-07-27T01:49:06.562Z,33.17
2022-07-27T01:54:11.325Z,34.70
2022-07-27T01:59:14.836Z,39.88
2022-07-27T02:04:20.608Z,34.22
2022-07-27T02:09:25.975Z,33.33
2022-07-27T02:14:29.287Z,30.70
2022-07-27T02:19:32.693Z,38.92
2022-07-27T02:24:37.957Z,32.20
2022-07-27T02:29:41.304Z,36.08
2022-07-27T02:34:45.109Z,37.67
2022-07-27T02:39:49.856Z,26.05
2022-07-27T02:44:53.364Z,32.00
2022-07-27T02:49:56.959Z,32.42
2022-07-27T02:55:01.835Z,41.17
2022-07-27T03:00:07.012Z,35.40
2022-07-27T03:05:12.710Z,33.33
2022-07-27T03:16:05.581Z,37.53
2022-07-27T03:21:09.068Z,36.67
2022-07-27T03:26:13.998Z,41.92
2022-07-27T03:31:17.437Z,42.17
2022-07-27T03:36:21.617Z,36.50
2022-07-27T03:41:26.260Z,38.17
2022-07-27T03:46:29.720Z,33.22
2022-07-27T03:51:33.114Z,28.08
2022-07-27T03:56:37.852Z,26.58
2022-07-27T04:01:41.222Z,29.98
2022-07-27T04:06:44.611Z,26.95
2022-07-27T04:11:50.945Z,26.30
2022-07-27T04:16:55.113Z,22.88
2022-07-27T04:21:58.571Z,20.50
2022-07-27T04:27:03.540Z,23.73
2022-07-27T04:32:07.834Z,30.25
2022-07-27T04:37:11.311Z,27.27
2022-07-27T04:42:16.026Z,18.60
2022-07-27T04:47:20.192Z,18.38
2022-07-27T04:52:27.025Z,17.42
2022-07-27T04:57:33.717Z,12.13
2022-07-27T05:02:40.954Z,11.65
2022-07-27T05:07:44.298Z,11.38
2022-07-27T05:12:49.571Z,10.60
2022-07-27T05:17:53.686Z,9.38
2022-07-27T05:22:57.613Z,9.43
2022-07-27T05:28:03.046Z,8.77
2022-07-27T05:33:06.582Z,24.00
2022-07-27T05:38:10.335Z,25.50
2022-07-27T05:43:15.137Z,22.15
2022-07-27T05:48:18.597Z,32.85
2022-07-27T05:53:22.015Z,24.08
2022-07-27T05:58:26.735Z,13.68
2022-07-27T06:03:30.276Z,11.40
2022-07-27T06:08:33.962Z,20.70
2022-07-27T06:13:42.486Z,19.67
2022-07-27T06:18:46.145Z,9.13
2022-07-27T06:23:49.472Z,9.45
2022-07-27T06:28:58.797Z,13.50
2022-07-27T06:34:02.296Z,5.72
2022-07-27T06:39:06.432Z,6.28
2022-07-27T06:44:11.088Z,8.55
2022-07-27T06:49:14.970Z,6.95
2022-07-27T06:54:18.530Z,6.93
2022-07-27T06:59:23.252Z,8.07
2022-07-27T07:04:26.687Z,7.07
2022-07-27T07:09:30.568Z,8.00
2022-07-27T07:14:35.304Z,6.30
2022-07-27T07:19:38.636Z,7.13
2022-07-27T07:24:42.254Z,7.28
2022-07-27T07:29:47.157Z,5.80
2022-07-27T07:34:50.847Z,8.07
2022-07-27T07:39:54.173Z,10.25
2022-07-27T07:44:58.942Z,8.55
2022-07-27T07:50:02.396Z,7.45
2022-07-27T07:55:06.563Z,9.73
2022-07-27T08:00:12.669Z,9.10
2022-07-27T08:05:16.578Z,11.55
2022-07-27T08:10:22.687Z,15.88
2022-07-27T08:15:34.968Z,13.23
2022-07-27T08:20:39.539Z,25.58
2022-07-27T08:25:42.914Z,26.15
2022-07-27T08:30:48.280Z,29.23
2022-07-27T08:35:53.016Z,24.13
2022-07-27T08:40:56.710Z,26.13
2022-07-27T08:46:01.987Z,20.80
2022-07-27T08:51:05.592Z,22.15
2022-07-27T08:56:10.148Z,20.75
2022-07-27T09:01:16.100Z,23.55
2022-07-27T09:06:44.096Z,25.90
2022-07-27T09:12:06.389Z,22.15
2022-07-27T09:17:49.455Z,16.92
2022-07-27T09:22:55.541Z,18.48
2022-07-27T09:28:00.935Z,17.92
2022-07-27T09:33:07.940Z,18.05
2022-07-27T09:38:19.189Z,18.13
2022-07-27T09:48:47.726Z,20.05
2022-07-27T09:53:51.279Z,16.77
2022-07-27T09:58:56.861Z,13.68
2022-07-27T10:04:03.673Z,13.73
2022-07-27T10:09:07.180Z,12.82
2022-07-27T10:14:10.819Z,13.55
2022-07-27T10:19:21.156Z,13.35
2022-07-27T10:24:28.989Z,10.68
2022-07-27T10:29:33.209Z,9.50
2022-07-27T10:34:40.744Z,12.50
2022-07-27T10:39:46.171Z,8.05
2022-07-27T10:45:05.057Z,8.40
2022-07-27T10:50:29.919Z,9.18
2022-07-27T10:55:46.877Z,9.15
2022-07-27T11:01:00.066Z,8.40
2022-07-27T11:06:31.344Z,7.05
2022-07-27T11:11:34.517Z,6.82
2022-07-27T11:16:54.691Z,6.60
2022-07-27T11:22:04.553Z,6.85
2022-07-27T11:27:16.350Z,6.25
2022-07-27T11:32:22.200Z,9.18
2022-07-27T11:37:26.855Z,12.35
2022-07-27T11:42:39.205Z,12.63
2022-07-27T11:47:42.679Z,11.23
2022-07-27T11:53:01.261Z,12.00
2022-07-27T12:03:08.998Z,8.63
2022-07-27T12:08:14.444Z,12.82
2022-07-27T12:13:19.730Z,6.03
2022-07-27T12:18:23.170Z,10.10
2022-07-27T12:23:31.229Z,6.03
2022-07-27T12:28:34.592Z,9.18
2022-07-27T12:33:39.004Z,6.43
2022-07-27T12:38:45.400Z,6.57
2022-07-27T12:44:05.316Z,5.10
2022-07-27T12:49:17.200Z,6.35
2022-07-27T12:54:22.378Z,4.15
2022-07-27T12:59:25.714Z,3.60
2022-07-27T13:04:29.080Z,8.40
2022-07-27T13:10:01.720Z,4.07
2022-07-27T13:14:59.125Z,12.93
2022-07-27T13:20:02.607Z,3.97
2022-07-27T13:25:16.085Z,3.90
2022-07-27T13:30:21.419Z,6.70
2022-07-27T13:35:24.820Z,6.35
2022-07-27T13:40:29.610Z,6.07
2022-07-27T13:45:42.797Z,7.28
2022-07-27T13:50:47.005Z,4.05
2022-07-27T13:55:51.745Z,3.72
2022-07-27T14:00:55.824Z,2.85
2022-07-27T14:05:59.242Z,3.00
2022-07-27T14:11:04.362Z,3.53
2022-07-27T14:16:08.453Z,4.50
2022-07-27T14:21:12.077Z,4.10
2022-07-27T14:26:16.930Z,1.95
2022-07-27T14:31:22.164Z,2.50
2022-07-27T14:36:25.615Z,2.28
2022-07-27T14:41:31.441Z,5.03
2022-07-27T14:46:34.908Z,1.80
2022-07-27T14:51:38.312Z,3.30
2022-07-27T14:56:43.083Z,2.97
2022-07-27T15:01:46.648Z,1.60
2022-07-27T15:06:50.202Z,2.25
2022-07-27T15:11:55.054Z,2.13
2022-07-27T15:16:58.491Z,3.42
2022-07-27T15:22:01.975Z,3.15
2022-07-27T15:27:07.046Z,1.85
2022-07-27T15:32:10.596Z,2.35
2022-07-27T15:37:14.808Z,1.98
2022-07-27T15:42:19.555Z,1.90
2022-07-27T15:47:22.901Z,1.95
2022-07-27T15:52:26.223Z,2.30
2022-07-27T15:57:30.960Z,3.15
2022-07-27T16:02:34.359Z,5.07
2022-07-27T16:07:41.399Z,4.72
2022-07-27T16:12:46.473Z,3.03
2022-07-27T16:17:49.939Z,2.65
2022-07-27T16:22:53.253Z,2.83
2022-07-27T16:27:57.948Z,1.75
2022-07-27T16:33:03.438Z,2.05
2022-07-27T16:38:06.934Z,2.28
2022-07-27T16:43:11.663Z,6.00
2022-07-27T16:48:14.999Z,1.83
2022-07-27T16:53:18.359Z,2.08
2022-07-27T16:58:23.021Z,7.07
2022-07-27T17:03:27.088Z,1.73
2022-07-27T17:08:30.568Z,2.38
2022-07-27T17:13:37.100Z,5.22
2022-07-27T17:18:40.771Z,2.58
2022-07-27T17:23:45.110Z,7.78
2022-07-27T17:28:49.943Z,5.03
2022-07-27T17:33:54.150Z,2.90
2022-07-27T17:38:58.058Z,3.25
2022-07-27T17:44:02.867Z,2.45
2022-07-27T17:49:06.229Z,2.95
2022-07-27T17:54:09.711Z,3.50
2022-07-27T17:59:36.470Z,4.70
2022-07-27T18:04:39.575Z,5.45
2022-07-27T18:09:43.535Z,3.00
2022-07-27T18:15:03.023Z,2.55
2022-07-27T18:25:11.686Z,3.97
2022-07-27T18:30:16.941Z,3.45
2022-07-27T18:35:20.481Z,3.50
2022-07-27T18:40:24.020Z,3.65
2022-07-27T18:45:34.201Z,2.53
2022-07-27T18:50:39.860Z,4.95
2022-07-27T18:55:44.957Z,3.28
2022-07-27T19:00:49.688Z,3.42
2022-07-27T19:05:54.458Z,3.63
2022-07-27T19:10:58.142Z,8.00
2022-07-27T19:16:02.854Z,10.68
2022-07-27T19:21:06.220Z,4.53
2022-07-27T19:26:10.294Z,5.57
2022-07-27T19:31:22.851Z,4.63
2022-07-27T19:36:27.749Z,5.72
2022-07-27T19:41:31.260Z,4.45
2022-07-27T19:46:36.190Z,6.90
2022-07-27T19:51:39.896Z,4.28
2022-07-27T19:56:43.260Z,6.15
2022-07-27T20:01:48.221Z,7.65
2022-07-27T20:06:51.652Z,6.00
2022-07-27T20:12:00.107Z,4.65
2022-07-27T20:17:06.189Z,4.43
2022-07-27T20:22:09.738Z,7.10
2022-07-27T20:27:13.745Z,4.50
2022-07-27T20:32:18.420Z,7.55
2022-07-27T20:37:21.835Z,4.45
2022-07-27T20:42:25.499Z,9.32
2022-07-27T20:47:34.565Z,7.95
2022-07-27T20:52:38.457Z,11.50
2022-07-27T20:57:42.026Z,8.70
2022-07-27T21:02:46.979Z,7.55
2022-07-27T21:07:50.425Z,6.53
2022-07-27T21:12:53.767Z,4.88
2022-07-27T21:17:58.511Z,3.90
2022-07-27T21:23:19.555Z,6.68
2022-07-27T21:28:24.756Z,8.52
2022-07-27T21:33:30.189Z,6.07
2022-07-27T21:38:33.591Z,9.93
2022-07-27T21:43:36.892Z,5.18
2022-07-27T21:48:42.035Z,6.07
2022-07-27T21:53:45.902Z,3.28
2022-07-27T21:58:49.438Z,4.30
2022-07-27T22:03:54.227Z,6.68
2022-07-27T22:08:57.585Z,3.90
2022-07-27T22:14:00.993Z,5.70
2022-07-27T22:19:06.018Z,10.55
2022-07-27T22:24:09.562Z,15.13
2022-07-27T22:29:13.230Z,5.38
2022-07-27T22:34:18.108Z,5.93
2022-07-27T22:39:21.502Z,8.05
2022-07-27T22:44:25.065Z,11.13
2022-07-27T22:49:30.083Z,4.28
2022-07-27T22:54:33.944Z,6.65
2022-07-27T22:59:38.271Z,6.82
2022-07-27T23:04:43.015Z,10.50
2022-07-27T23:09:46.312Z,6.13
2022-07-27T23:14:50.330Z,4.80
2022-07-27T23:19:55.045Z,8.85
2022-07-27T23:24:58.329Z,7.55
2022-07-27T23:30:01.615Z,6.13
2022-07-27T23:35:07.310Z,6.20
2022-07-27T23:40:12.066Z,4.78
2022-07-27T23:45:15.397Z,8.23
2022-07-27T23:50:20.197Z,7.40
2022-07-27T23:55:23.544Z,7.32
